createdAt,value
2018-09-26T00:01:38.269Z,7.40
2018-09-26T00:04:44.845Z,7.30
2018-09-26T00:07:47.917Z,7.30
2018-09-26T00:10:51.005Z,7.30
2018-09-26T00:13:54.125Z,7.30
2018-09-26T00:16:57.208Z,7.30
2018-09-26T00:20:00.362Z,7.30
2018-09-26T00:23:03.441Z,7.30
2018-09-26T00:26:06.563Z,7.20
2018-09-26T00:29:09.661Z,7.20
2018-09-26T00:32:12.725Z,7.20
2018-09-26T00:35:15.829Z,7.10
2018-09-26T00:38:18.910Z,7.20
2018-09-26T00:41:22.005Z,7.10
2018-09-26T00:44:25.085Z,7.10
2018-09-26T00:47:28.158Z,7.10
2018-09-26T00:50:31.245Z,7.10
2018-09-26T00:53:34.345Z,7.10
2018-09-26T00:56:37.441Z,7.00
2018-09-26T00:59:40.530Z,7.00
2018-09-26T01:02:43.625Z,7.00
2018-09-26T01:05:46.933Z,7.00
2018-09-26T01:08:50.157Z,6.90
2018-09-26T01:11:53.233Z,6.90
2018-09-26T01:14:56.321Z,6.80
2018-09-26T01:17:59.405Z,6.80
2018-09-26T01:21:02.480Z,6.80
2018-09-26T01:24:05.881Z,6.80
2018-09-26T01:27:08.950Z,6.80
2018-09-26T01:30:12.045Z,6.80
2018-09-26T01:33:15.111Z,6.90
2018-09-26T01:36:18.214Z,7.00
2018-09-26T01:39:21.381Z,7.00
2018-09-26T01:42:24.457Z,7.00
2018-09-26T01:45:27.553Z,7.10
2018-09-26T01:48:30.642Z,7.10
2018-09-26T01:51:33.722Z,7.10
2018-09-26T01:54:36.813Z,7.10
2018-09-26T01:57:39.893Z,7.10
2018-09-26T02:00:42.985Z,7.10
2018-09-26T02:03:46.061Z,7.10
2018-09-26T02:06:49.124Z,7.20
2018-09-26T02:09:52.193Z,7.20
2018-09-26T02:12:55.276Z,7.20
2018-09-26T02:15:58.370Z,7.20
2018-09-26T02:19:01.442Z,7.20
2018-09-26T02:22:04.535Z,7.30
2018-09-26T02:25:07.641Z,7.20
2018-09-26T02:28:10.748Z,7.20
2018-09-26T02:31:13.822Z,7.20
2018-09-26T02:34:16.910Z,7.10
2018-09-26T02:37:20.006Z,7.10
2018-09-26T02:40:23.086Z,7.10
2018-09-26T02:43:26.229Z,7.10
2018-09-26T02:46:29.321Z,7.10
2018-09-26T02:49:32.393Z,7.10
2018-09-26T02:52:35.458Z,7.10
2018-09-26T02:55:38.554Z,7.10
2018-09-26T02:58:41.617Z,7.00
2018-09-26T03:01:44.710Z,7.00
2018-09-26T03:04:47.785Z,7.00
2018-09-26T03:07:50.841Z,6.90
2018-09-26T03:10:53.986Z,6.90
2018-09-26T03:13:56.998Z,6.90
2018-09-26T03:17:00.102Z,6.90
2018-09-26T03:20:03.198Z,6.90
2018-09-26T03:23:06.293Z,7.00
2018-09-26T03:26:09.568Z,6.90
2018-09-26T03:29:12.633Z,6.90
2018-09-26T03:32:22.141Z,6.90
2018-09-26T03:35:25.214Z,7.00
2018-09-26T03:38:28.310Z,6.90
2018-09-26T03:41:31.362Z,6.90
2018-09-26T03:44:34.453Z,6.80
2018-09-26T03:47:37.521Z,6.80
2018-09-26T03:50:40.585Z,6.70
2018-09-26T03:53:43.669Z,6.70
2018-09-26T03:56:46.840Z,6.80
2018-09-26T03:59:49.943Z,6.80
2018-09-26T04:02:53.046Z,6.80
2018-09-26T04:05:56.117Z,6.70
2018-09-26T04:08:59.206Z,6.70
2018-09-26T04:12:02.379Z,6.70
2018-09-26T04:15:05.421Z,6.70
2018-09-26T04:18:08.510Z,6.70
2018-09-26T04:21:11.610Z,6.60
2018-09-26T04:24:14.685Z,6.60
2018-09-26T04:27:17.873Z,6.70
2018-09-26T04:30:20.879Z,6.70
2018-09-26T04:33:23.934Z,6.70
2018-09-26T04:36:27.009Z,6.70
2018-09-26T04:39:30.103Z,6.70
2018-09-26T04:42:33.196Z,6.80
2018-09-26T04:45:36.274Z,6.80
2018-09-26T04:48:39.357Z,6.80
2018-09-26T04:51:42.432Z,6.80
2018-09-26T04:54:45.529Z,6.80
2018-09-26T04:57:48.618Z,6.80
2018-09-26T05:00:51.697Z,6.80
2018-09-26T05:03:54.789Z,6.70
2018-09-26T05:07:01.349Z,6.70
2018-09-26T05:10:04.865Z,6.70
2018-09-26T05:13:07.994Z,6.70
2018-09-26T05:16:11.085Z,6.70
2018-09-26T05:19:14.211Z,6.70
2018-09-26T05:22:17.330Z,6.70
2018-09-26T05:25:20.465Z,6.80
2018-09-26T05:28:23.541Z,6.80
2018-09-26T05:31:26.995Z,6.80
2018-09-26T05:34:30.153Z,6.90
2018-09-26T05:37:33.248Z,7.00
2018-09-26T05:40:36.350Z,7.10
2018-09-26T05:43:39.462Z,7.40
2018-09-26T05:46:42.563Z,7.60
2018-09-26T05:49:45.659Z,7.70
2018-09-26T05:52:48.781Z,8.00
2018-09-26T05:55:51.869Z,8.60
2018-09-26T05:59:01.354Z,9.80
2018-09-26T06:02:04.464Z,11.40
2018-09-26T06:05:07.718Z,12.60
2018-09-26T06:08:10.818Z,13.50
2018-09-26T06:11:13.925Z,14.30
2018-09-26T06:14:17.002Z,15.20
2018-09-26T06:17:20.133Z,16.30
2018-09-26T06:20:23.223Z,17.40
2018-09-26T06:23:26.318Z,18.40
2018-09-26T06:26:29.397Z,18.80
2018-09-26T06:29:32.481Z,18.30
2018-09-26T06:32:35.669Z,17.50
2018-09-26T06:35:38.757Z,17.20
2018-09-26T06:38:41.841Z,17.30
2018-09-26T06:41:44.922Z,17.30
2018-09-26T06:44:48.003Z,17.10
2018-09-26T06:47:51.097Z,16.70
2018-09-26T06:50:54.212Z,16.00
2018-09-26T06:53:57.514Z,15.40
2018-09-26T06:57:00.602Z,15.10
2018-09-26T07:00:03.740Z,14.70
2018-09-26T07:03:06.823Z,14.60
2018-09-26T07:06:10.738Z,14.50
2018-09-26T07:09:13.806Z,14.60
2018-09-26T07:12:16.941Z,14.80
2018-09-26T07:15:19.993Z,14.90
2018-09-26T07:18:23.085Z,14.90
2018-09-26T07:21:26.177Z,14.90
2018-09-26T07:24:29.249Z,14.80
2018-09-26T07:27:32.364Z,15.00
2018-09-26T07:30:35.434Z,15.30
2018-09-26T07:33:38.561Z,15.30
2018-09-26T07:36:41.658Z,15.20
2018-09-26T07:39:44.773Z,15.10
2018-09-26T07:42:47.860Z,14.80
2018-09-26T07:45:51.104Z,14.80
2018-09-26T07:48:54.167Z,14.70
2018-09-26T07:51:57.416Z,14.60
2018-09-26T07:55:00.525Z,14.50
2018-09-26T07:58:03.625Z,14.20
2018-09-26T08:01:07.906Z,14.10
2018-09-26T08:04:11.041Z,14.00
2018-09-26T08:07:14.159Z,13.80
2018-09-26T08:10:17.245Z,13.60
2018-09-26T08:13:20.426Z,13.50
2018-09-26T08:16:23.532Z,13.30
2018-09-26T08:19:26.640Z,13.00
2018-09-26T08:22:29.717Z,12.90
2018-09-26T08:25:32.952Z,12.80
2018-09-26T08:28:36.046Z,12.80
2018-09-26T08:31:39.137Z,12.80
2018-09-26T08:34:42.272Z,12.90
2018-09-26T08:37:45.509Z,12.80
2018-09-26T08:40:48.585Z,12.90
2018-09-26T08:43:51.714Z,12.90
2018-09-26T08:46:54.745Z,13.00
2018-09-26T08:49:57.853Z,13.20
2018-09-26T08:53:00.949Z,13.20
2018-09-26T08:56:04.034Z,13.30
2018-09-26T08:59:07.134Z,13.30
2018-09-26T09:02:10.201Z,13.30
2018-09-26T09:05:13.285Z,13.30
2018-09-26T09:08:16.431Z,13.40
2018-09-26T09:11:19.613Z,13.60
2018-09-26T09:14:22.699Z,13.80
2018-09-26T09:17:25.792Z,13.70
2018-09-26T09:20:28.878Z,14.00
2018-09-26T09:23:31.989Z,14.20
2018-09-26T09:26:35.057Z,14.20
2018-09-26T09:29:38.154Z,14.40
2018-09-26T09:32:41.230Z,14.40
2018-09-26T09:35:44.362Z,14.60
2018-09-26T09:38:47.473Z,14.80
2018-09-26T09:41:50.546Z,14.80
2018-09-26T09:44:57.580Z,14.90
2018-09-26T09:48:00.625Z,14.90
2018-09-26T09:51:03.783Z,15.00
2018-09-26T09:54:07.116Z,15.10
2018-09-26T09:57:10.279Z,15.00
2018-09-26T10:00:13.342Z,15.00
2018-09-26T10:03:16.799Z,15.00
2018-09-26T10:06:19.871Z,15.20
2018-09-26T10:09:22.983Z,15.10
2018-09-26T10:12:26.059Z,14.90
2018-09-26T10:15:29.135Z,14.80
2018-09-26T10:18:32.245Z,14.70
2018-09-26T10:21:35.377Z,14.80
2018-09-26T10:24:38.457Z,14.90
2018-09-26T10:27:41.542Z,15.00
2018-09-26T10:30:44.624Z,15.00
2018-09-26T10:33:47.725Z,15.00
2018-09-26T10:36:50.818Z,15.00
2018-09-26T10:39:53.906Z,15.10
2018-09-26T10:42:57.054Z,15.20
2018-09-26T10:46:00.142Z,15.20
2018-09-26T10:49:03.247Z,15.30
2018-09-26T10:52:06.385Z,15.30
2018-09-26T10:55:09.526Z,15.30
2018-09-26T10:58:12.625Z,15.10
2018-09-26T11:01:15.824Z,15.20
2018-09-26T11:04:18.992Z,15.20
2018-09-26T11:07:22.721Z,15.20
2018-09-26T11:10:25.886Z,15.20
2018-09-26T11:13:28.958Z,15.20
2018-09-26T11:16:32.090Z,15.10
2018-09-26T11:19:35.182Z,15.20
2018-09-26T11:22:38.296Z,15.30
2018-09-26T11:25:41.368Z,15.30
2018-09-26T11:28:44.482Z,15.30
2018-09-26T11:31:47.558Z,15.20
2018-09-26T11:34:50.639Z,15.10
2018-09-26T11:37:53.730Z,15.00
2018-09-26T11:40:56.812Z,15.10
2018-09-26T11:44:00.329Z,15.20
2018-09-26T11:47:03.502Z,15.30
2018-09-26T11:50:06.678Z,15.40
2018-09-26T11:53:11.321Z,15.40
2018-09-26T11:56:14.857Z,15.60
2018-09-26T11:59:17.922Z,15.60
2018-09-26T12:02:21.007Z,15.50
2018-09-26T12:05:24.102Z,15.50
2018-09-26T12:08:27.358Z,15.50
2018-09-26T12:11:30.402Z,15.60
2018-09-26T12:14:33.548Z,15.70
2018-09-26T12:17:36.601Z,15.60
2018-09-26T12:20:39.806Z,15.70
2018-09-26T12:23:43.021Z,15.60
2018-09-26T12:26:46.122Z,15.60
2018-09-26T12:29:49.222Z,15.50
2018-09-26T12:32:52.342Z,15.50
2018-09-26T12:35:55.454Z,15.50
2018-09-26T12:38:58.546Z,15.50
2018-09-26T12:42:01.681Z,15.50
2018-09-26T12:45:04.771Z,15.40
2018-09-26T12:48:07.964Z,15.40
2018-09-26T12:51:10.999Z,15.40
2018-09-26T12:54:14.111Z,15.40
2018-09-26T12:57:17.231Z,15.40
2018-09-26T13:00:20.320Z,15.40
2018-09-26T13:03:23.432Z,15.40
2018-09-26T13:06:26.534Z,15.40
2018-09-26T13:09:29.626Z,15.50
2018-09-26T13:12:32.751Z,15.50
2018-09-26T13:15:35.842Z,15.40
2018-09-26T13:18:38.972Z,15.40
2018-09-26T13:21:42.031Z,15.30
2018-09-26T13:24:45.130Z,15.30
2018-09-26T13:27:48.195Z,15.30
2018-09-26T13:30:51.306Z,15.20
2018-09-26T13:33:54.384Z,15.20
2018-09-26T13:36:57.485Z,15.20
2018-09-26T13:40:00.577Z,15.20
2018-09-26T13:43:03.672Z,15.20
2018-09-26T13:46:06.838Z,15.20
2018-09-26T13:49:09.875Z,15.20
2018-09-26T13:52:12.971Z,15.30
2018-09-26T13:55:16.030Z,15.40
2018-09-26T13:58:19.220Z,15.40
2018-09-26T14:01:22.354Z,15.40
2018-09-26T14:04:25.422Z,15.40
2018-09-26T14:07:28.497Z,15.50
2018-09-26T14:10:31.645Z,15.40
2018-09-26T14:13:34.660Z,15.40
2018-09-26T14:16:37.765Z,15.40
2018-09-26T14:19:45.098Z,15.30
2018-09-26T14:22:48.537Z,15.40
2018-09-26T14:25:51.695Z,15.40
2018-09-26T14:28:55.166Z,15.40
2018-09-26T14:31:58.461Z,15.30
2018-09-26T14:35:01.726Z,15.30
2018-09-26T14:38:04.998Z,15.20
2018-09-26T14:41:09.143Z,15.20
2018-09-26T14:44:12.331Z,15.20
2018-09-26T14:47:15.637Z,15.20
2018-09-26T14:50:18.932Z,15.30
2018-09-26T14:53:22.155Z,15.40
2018-09-26T14:56:25.346Z,15.40
2018-09-26T14:59:28.588Z,15.40
2018-09-26T15:02:31.857Z,15.50
2018-09-26T15:05:35.139Z,15.50
2018-09-26T15:08:38.418Z,15.40
2018-09-26T15:11:41.643Z,15.30
2018-09-26T15:14:44.886Z,15.30
2018-09-26T15:17:48.122Z,15.30
2018-09-26T15:20:51.429Z,15.30
2018-09-26T15:24:01.420Z,15.30
2018-09-26T15:27:04.757Z,15.30
2018-09-26T15:30:08.287Z,15.20
2018-09-26T15:33:26.505Z,15.20
2018-09-26T15:36:30.855Z,15.20
2018-09-26T15:39:34.189Z,15.20
2018-09-26T15:42:37.456Z,15.20
2018-09-26T15:45:40.975Z,15.20
2018-09-26T15:48:44.225Z,15.30
2018-09-26T15:51:47.459Z,15.30
2018-09-26T15:54:50.697Z,15.20
2018-09-26T15:57:53.970Z,15.10
2018-09-26T16:00:57.215Z,15.00
2018-09-26T16:04:17.314Z,14.90
2018-09-26T16:07:20.393Z,14.80
2018-09-26T16:10:23.526Z,14.70
2018-09-26T16:13:26.594Z,14.70
2018-09-26T16:16:29.685Z,14.70
2018-09-26T16:19:32.818Z,14.60
2018-09-26T16:22:35.897Z,14.60
2018-09-26T16:25:39.089Z,14.50
2018-09-26T16:28:42.126Z,14.40
2018-09-26T16:31:45.257Z,14.40
2018-09-26T16:34:48.332Z,14.40
2018-09-26T16:37:51.436Z,14.40
2018-09-26T16:40:54.568Z,14.30
2018-09-26T16:43:57.670Z,14.30
2018-09-26T16:47:00.795Z,14.20
2018-09-26T16:50:03.933Z,14.20
2018-09-26T16:53:06.998Z,14.20
2018-09-26T16:56:10.092Z,14.10
2018-09-26T16:59:13.169Z,14.00
2018-09-26T17:02:16.381Z,13.80
2018-09-26T17:05:19.703Z,13.80
2018-09-26T17:08:22.868Z,13.80
2018-09-26T17:11:25.951Z,13.70
2018-09-26T17:14:29.165Z,13.70
2018-09-26T17:17:32.254Z,13.60
2018-09-26T17:20:35.401Z,13.60
2018-09-26T17:23:38.491Z,13.50
2018-09-26T17:26:41.597Z,13.50
2018-09-26T17:29:44.707Z,13.40
2018-09-26T17:32:47.812Z,13.40
2018-09-26T17:35:50.970Z,13.30
2018-09-26T17:38:54.045Z,13.30
2018-09-26T17:41:57.128Z,13.30
2018-09-26T17:45:00.285Z,13.20
2018-09-26T17:48:03.392Z,13.20
2018-09-26T17:51:06.561Z,13.20
2018-09-26T17:54:09.703Z,13.20
2018-09-26T17:57:12.885Z,13.20
2018-09-26T18:00:16.019Z,13.20
2018-09-26T18:03:19.080Z,13.10
2018-09-26T18:06:25.289Z,13.10
2018-09-26T18:09:28.389Z,13.10
2018-09-26T18:12:31.574Z,13.10
2018-09-26T18:15:34.677Z,13.10
2018-09-26T18:18:37.790Z,13.10
2018-09-26T18:21:40.877Z,13.00
2018-09-26T18:24:44.013Z,13.00
2018-09-26T18:27:47.212Z,13.00
2018-09-26T18:30:50.249Z,12.90
2018-09-26T18:33:53.353Z,12.90
2018-09-26T18:36:56.470Z,12.90
2018-09-26T18:39:59.615Z,12.90
2018-09-26T18:43:02.717Z,12.80
2018-09-26T18:46:05.813Z,12.80
2018-09-26T18:49:08.941Z,12.80
2018-09-26T18:52:12.070Z,12.80
2018-09-26T18:55:15.153Z,12.80
2018-09-26T18:58:18.283Z,12.80
2018-09-26T19:01:21.338Z,12.70
2018-09-26T19:04:25.149Z,12.60
2018-09-26T19:07:28.385Z,12.60
2018-09-26T19:10:31.579Z,12.50
2018-09-26T19:13:34.741Z,12.50
2018-09-26T19:16:37.825Z,12.50
2018-09-26T19:19:40.927Z,12.50
2018-09-26T19:22:43.998Z,12.50
2018-09-26T19:25:47.095Z,12.50
2018-09-26T19:28:50.510Z,12.40
2018-09-26T19:31:53.577Z,12.40
2018-09-26T19:34:56.711Z,12.40
2018-09-26T19:38:00.202Z,12.40
2018-09-26T19:41:03.729Z,12.40
2018-09-26T19:44:06.825Z,12.40
2018-09-26T19:47:10.175Z,12.30
2018-09-26T19:50:13.258Z,12.30
2018-09-26T19:53:16.466Z,12.30
2018-09-26T19:56:19.634Z,12.30
2018-09-26T19:59:22.645Z,12.40
2018-09-26T20:02:25.765Z,12.50
2018-09-26T20:05:28.861Z,12.50
2018-09-26T20:08:32.308Z,12.50
2018-09-26T20:11:35.409Z,12.60
2018-09-26T20:14:38.533Z,12.60
2018-09-26T20:17:41.651Z,12.70
2018-09-26T20:20:44.741Z,12.70
2018-09-26T20:23:47.822Z,12.80
2018-09-26T20:26:51.052Z,12.80
2018-09-26T20:29:54.022Z,12.80
2018-09-26T20:32:57.138Z,12.80
2018-09-26T20:36:00.191Z,12.80
2018-09-26T20:39:04.429Z,12.70
2018-09-26T20:45:17.206Z,12.70
2018-09-26T20:48:20.249Z,12.70
2018-09-26T20:51:23.346Z,12.60
2018-09-26T20:54:26.421Z,12.60
2018-09-26T20:57:29.533Z,12.50
2018-09-26T21:00:32.870Z,12.40
2018-09-26T21:03:35.905Z,12.30
2018-09-26T21:06:39.015Z,12.20
2018-09-26T21:09:42.093Z,12.10
2018-09-26T21:12:45.179Z,12.10
2018-09-26T21:15:48.306Z,12.00
2018-09-26T21:18:51.393Z,12.00
2018-09-26T21:21:54.513Z,12.00
2018-09-26T21:24:57.606Z,11.90
2018-09-26T21:28:00.697Z,11.80
2018-09-26T21:31:03.845Z,11.80
2018-09-26T21:34:06.894Z,11.70
2018-09-26T21:37:10.030Z,11.70
2018-09-26T21:40:13.143Z,11.60
2018-09-26T21:43:16.260Z,11.60
2018-09-26T21:46:19.349Z,11.60
2018-09-26T21:49:22.464Z,11.70
2018-09-26T21:52:25.518Z,11.60
2018-09-26T21:55:28.617Z,11.50
2018-09-26T21:58:31.709Z,11.40
2018-09-26T22:01:34.807Z,11.40
2018-09-26T22:04:37.916Z,11.40
2018-09-26T22:07:41.002Z,11.30
2018-09-26T22:10:44.101Z,11.30
2018-09-26T22:13:47.189Z,11.30
2018-09-26T22:16:50.294Z,11.30
2018-09-26T22:19:53.381Z,11.20
2018-09-26T22:22:56.482Z,11.10
2018-09-26T22:25:59.619Z,11.10
2018-09-26T22:29:02.710Z,11.10
2018-09-26T22:32:06.010Z,11.10
2018-09-26T22:35:09.132Z,11.10
2018-09-26T22:38:12.246Z,11.10
2018-09-26T22:41:15.294Z,11.10
2018-09-26T22:44:18.397Z,11.20
2018-09-26T22:47:21.466Z,11.20
2018-09-26T22:50:24.545Z,11.20
2018-09-26T22:53:27.688Z,11.20
2018-09-26T22:56:30.801Z,11.20
2018-09-26T22:59:33.877Z,11.30
2018-09-26T23:02:36.949Z,11.20
2018-09-26T23:05:40.042Z,11.20
2018-09-26T23:08:43.191Z,11.10
2018-09-26T23:11:46.265Z,11.00
2018-09-26T23:14:49.375Z,11.00
2018-09-26T23:17:52.437Z,11.00
2018-09-26T23:20:55.545Z,10.90
2018-09-26T23:23:58.640Z,10.90
2018-09-26T23:27:01.725Z,10.90
2018-09-26T23:30:04.777Z,10.90
2018-09-26T23:33:07.938Z,10.90
2018-09-26T23:36:11.034Z,10.80
2018-09-26T23:39:14.130Z,10.90
2018-09-26T23:42:17.210Z,10.90
2018-09-26T23:45:20.274Z,10.90
2018-09-26T23:48:23.356Z,10.90
2018-09-26T23:51:26.466Z,10.90
2018-09-26T23:54:29.566Z,10.90
2018-09-26T23:57:32.688Z,10.90
